TAF LFTW
AMD LFTW 081901Z 0819/0915 CNL=
METAR LFTW
LFTW 082230Z AUTO 27007KT CAVOK 04/01 Q1005=
LFTW 082200Z AUTO 27005KT CAVOK 03/00 Q1005=
LFTW 082130Z AUTO 27005KT CAVOK 04/00 Q1005=
LFTW 082100Z AUTO 29006KT CAVOK 04/01 Q1005=
LFTW 082030Z AUTO 28005KT CAVOK 04/01 Q1005=
WC LFTW
WS LFTW
WV LFTW